sensor_id;sensor_type;location;lat;lon;timestamp;pressure;altitude;pressure_sealevel;temperature;humidity
27144;BME280;14672;50.250;8.312;2023-03-31T00:02:00;98027.88;;;14.93;64.67
27144;BME280;14672;50.250;8.312;2023-03-31T00:04:27;98030.72;;;14.87;65.04
27144;BME280;14672;50.250;8.312;2023-03-31T00:06:57;98027.06;;;14.87;65.02
27144;BME280;14672;50.250;8.312;2023-03-31T00:09:24;98025.59;;;14.66;66.18
27144;BME280;14672;50.250;8.312;2023-03-31T00:11:51;98020.53;;;14.81;65.58
27144;BME280;14672;50.250;8.312;2023-03-31T00:14:19;98014.13;;;14.60;66.13
27144;BME280;14672;50.250;8.312;2023-03-31T00:16:45;98004.59;;;14.69;66.17
27144;BME280;14672;50.250;8.312;2023-03-31T00:19:13;98002.13;;;14.56;66.34
27144;BME280;14672;50.250;8.312;2023-03-31T00:21:48;98006.75;;;14.48;67.18
27144;BME280;14672;50.250;8.312;2023-03-31T00:24:17;98002.63;;;14.54;66.83
27144;BME280;14672;50.250;8.312;2023-03-31T00:26:43;97988.88;;;14.53;67.28
27144;BME280;14672;50.250;8.312;2023-03-31T00:29:12;97984.22;;;14.61;67.44
27144;BME280;14672;50.250;8.312;2023-03-31T00:31:38;97994.03;;;14.49;67.36
27144;BME280;14672;50.250;8.312;2023-03-31T00:34:05;97986.19;;;14.44;67.81
27144;BME280;14672;50.250;8.312;2023-03-31T00:36:31;97981.25;;;14.44;68.20
27144;BME280;14672;50.250;8.312;2023-03-31T00:39:04;97969.03;;;14.44;68.49
27144;BME280;14672;50.250;8.312;2023-03-31T00:41:35;97959.75;;;14.49;68.24
27144;BME280;14672;50.250;8.312;2023-03-31T00:44:14;97943.09;;;14.47;68.36
27144;BME280;14672;50.250;8.312;2023-03-31T00:47:12;97943.91;;;14.53;67.74
27144;BME280;14672;50.250;8.312;2023-03-31T00:49:47;97946.34;;;14.35;68.04
27144;BME280;14672;50.250;8.312;2023-03-31T00:52:25;97944.69;;;14.54;67.64
27144;BME280;14672;50.250;8.312;2023-03-31T00:55:06;97945.63;;;14.40;67.87
27144;BME280;14672;50.250;8.312;2023-03-31T00:57:35;97938.16;;;14.48;67.38
27144;BME280;14672;50.250;8.312;2023-03-31T01:00:09;97946.28;;;14.29;68.36
27144;BME280;14672;50.250;8.312;2023-03-31T01:02:42;97935.78;;;14.41;68.03
27144;BME280;14672;50.250;8.312;2023-03-31T01:05:19;97923.31;;;14.44;68.15
27144;BME280;14672;50.250;8.312;2023-03-31T01:07:48;97917.28;;;14.36;67.71
27144;BME280;14672;50.250;8.312;2023-03-31T01:10:15;97916.03;;;14.43;67.79
27144;BME280;14672;50.250;8.312;2023-03-31T01:12:45;97910.06;;;14.41;68.23
27144;BME280;14672;50.250;8.312;2023-03-31T01:15:13;97906.44;;;14.46;67.72
27144;BME280;14672;50.250;8.312;2023-03-31T01:17:40;97910.88;;;14.47;67.72
27144;BME280;14672;50.250;8.312;2023-03-31T01:42:02;97858.94;;;14.17;68.22
27144;BME280;14672;50.250;8.312;2023-03-31T01:44:45;97839.81;;;14.34;68.19
27144;BME280;14672;50.250;8.312;2023-03-31T01:47:18;97839.03;;;14.34;67.91
27144;BME280;14672;50.250;8.312;2023-03-31T01:50:00;97831.34;;;14.40;67.69
27144;BME280;14672;50.250;8.312;2023-03-31T01:52:37;97824.59;;;14.43;67.78
27144;BME280;14672;50.250;8.312;2023-03-31T01:55:25;97819.41;;;14.47;67.54
27144;BME280;14672;50.250;8.312;2023-03-31T01:58:20;97813.69;;;14.47;66.97
27144;BME280;14672;50.250;8.312;2023-03-31T02:00:59;97813.63;;;14.36;67.77
27144;BME280;14672;50.250;8.312;2023-03-31T02:03:36;97805.88;;;14.42;67.43
27144;BME280;14672;50.250;8.312;2023-03-31T02:06:13;97805.78;;;14.31;67.85
27144;BME280;14672;50.250;8.312;2023-03-31T02:08:47;97786.81;;;14.33;67.25
27144;BME280;14672;50.250;8.312;2023-03-31T02:11:14;97789.50;;;14.37;66.74
27144;BME280;14672;50.250;8.312;2023-03-31T02:13:43;97785.97;;;14.22;67.50
27144;BME280;14672;50.250;8.312;2023-03-31T02:16:15;97777.22;;;14.31;67.35
27144;BME280;14672;50.250;8.312;2023-03-31T02:18:47;97771.03;;;14.38;67.15
27144;BME280;14672;50.250;8.312;2023-03-31T02:21:15;97765.84;;;14.36;67.26
27144;BME280;14672;50.250;8.312;2023-03-31T02:23:42;97760.41;;;14.38;66.91
27144;BME280;14672;50.250;8.312;2023-03-31T02:26:11;97756.28;;;14.45;66.79
27144;BME280;14672;50.250;8.312;2023-03-31T02:28:39;97752.66;;;14.50;66.34
27144;BME280;14672;50.250;8.312;2023-03-31T02:34:12;97749.31;;;14.51;66.46
27144;BME280;14672;50.250;8.312;2023-03-31T02:36:41;97749.56;;;14.53;66.28
27144;BME280;14672;50.250;8.312;2023-03-31T02:39:14;97745.84;;;14.36;66.50
27144;BME280;14672;50.250;8.312;2023-03-31T02:41:42;97740.56;;;14.29;66.50
27144;BME280;14672;50.250;8.312;2023-03-31T02:44:10;97747.72;;;14.45;66.08
27144;BME280;14672;50.250;8.312;2023-03-31T02:46:37;97729.78;;;14.44;66.38
27144;BME280;14672;50.250;8.312;2023-03-31T02:49:06;97733.72;;;14.52;66.17
27144;BME280;14672;50.250;8.312;2023-03-31T02:54:49;97729.44;;;14.31;67.55
27144;BME280;14672;50.250;8.312;2023-03-31T03:00:23;97704.75;;;14.34;66.47
27144;BME280;14672;50.250;8.312;2023-03-31T03:11:32;97645.22;;;14.16;66.37
27144;BME280;14672;50.250;8.312;2023-03-31T03:16:41;97606.78;;;14.11;67.22
27144;BME280;14672;50.250;8.312;2023-03-31T03:19:09;97615.09;;;14.15;67.17
27144;BME280;14672;50.250;8.312;2023-03-31T03:21:42;97627.81;;;14.13;67.34
27144;BME280;14672;50.250;8.312;2023-03-31T03:24:08;97630.34;;;13.95;67.75
27144;BME280;14672;50.250;8.312;2023-03-31T03:26:34;97627.75;;;13.97;68.16
27144;BME280;14672;50.250;8.312;2023-03-31T03:29:01;97633.47;;;13.97;68.15
27144;BME280;14672;50.250;8.312;2023-03-31T03:31:27;97631.13;;;13.95;68.77
27144;BME280;14672;50.250;8.312;2023-03-31T03:33:52;97620.72;;;13.92;68.99
27144;BME280;14672;50.250;8.312;2023-03-31T03:36:19;97610.88;;;13.99;68.69
27144;BME280;14672;50.250;8.312;2023-03-31T03:38:44;97604.44;;;14.09;68.23
27144;BME280;14672;50.250;8.312;2023-03-31T03:41:10;97604.19;;;14.07;67.95
27144;BME280;14672;50.250;8.312;2023-03-31T03:43:36;97606.00;;;14.10;67.93
27144;BME280;14672;50.250;8.312;2023-03-31T03:46:02;97599.00;;;14.11;67.61
27144;BME280;14672;50.250;8.312;2023-03-31T03:48:28;97591.59;;;13.77;69.44
27144;BME280;14672;50.250;8.312;2023-03-31T03:50:54;97564.59;;;13.78;69.14
27144;BME280;14672;50.250;8.312;2023-03-31T03:53:20;97567.00;;;13.96;68.58
27144;BME280;14672;50.250;8.312;2023-03-31T03:55:46;97574.28;;;13.97;68.20
27144;BME280;14672;50.250;8.312;2023-03-31T03:58:16;97577.09;;;13.86;68.58
27144;BME280;14672;50.250;8.312;2023-03-31T04:00:43;97567.72;;;13.86;69.24
27144;BME280;14672;50.250;8.312;2023-03-31T04:03:10;97551.16;;;13.95;68.50
27144;BME280;14672;50.250;8.312;2023-03-31T04:05:36;97542.84;;;13.97;68.42
27144;BME280;14672;50.250;8.312;2023-03-31T04:08:02;97545.72;;;13.97;68.44
27144;BME280;14672;50.250;8.312;2023-03-31T04:10:29;97552.38;;;13.72;69.23
27144;BME280;14672;50.250;8.312;2023-03-31T04:12:54;97545.72;;;13.92;68.89
27144;BME280;14672;50.250;8.312;2023-03-31T04:15:20;97548.28;;;13.90;68.71
27144;BME280;14672;50.250;8.312;2023-03-31T04:17:46;97545.47;;;13.95;68.75
27144;BME280;14672;50.250;8.312;2023-03-31T04:20:16;97543.66;;;13.92;68.40
27144;BME280;14672;50.250;8.312;2023-03-31T04:22:42;97542.34;;;13.99;68.25
27144;BME280;14672;50.250;8.312;2023-03-31T04:25:13;97531.69;;;13.88;68.74
27144;BME280;14672;50.250;8.312;2023-03-31T04:27:43;97531.41;;;13.86;69.29
27144;BME280;14672;50.250;8.312;2023-03-31T04:30:16;97522.88;;;13.92;68.69
27144;BME280;14672;50.250;8.312;2023-03-31T04:33:00;97521.56;;;13.87;68.71
27144;BME280;14672;50.250;8.312;2023-03-31T04:35:28;97514.56;;;13.88;68.88
27144;BME280;14672;50.250;8.312;2023-03-31T04:38:13;97511.44;;;13.97;67.92
27144;BME280;14672;50.250;8.312;2023-03-31T04:40:39;97498.75;;;13.98;67.83
27144;BME280;14672;50.250;8.312;2023-03-31T04:43:05;97486.28;;;13.96;68.15
27144;BME280;14672;50.250;8.312;2023-03-31T04:45:31;97489.16;;;13.96;67.86
27144;BME280;14672;50.250;8.312;2023-03-31T04:47:57;97483.69;;;13.98;67.48
27144;BME280;14672;50.250;8.312;2023-03-31T04:50:23;97477.19;;;13.97;66.71
27144;BME280;14672;50.250;8.312;2023-03-31T04:52:48;97461.63;;;13.98;67.34
27144;BME280;14672;50.250;8.312;2023-03-31T04:55:14;97461.91;;;14.00;67.06
27144;BME280;14672;50.250;8.312;2023-03-31T04:57:40;97460.06;;;13.97;66.83
27144;BME280;14672;50.250;8.312;2023-03-31T05:00:07;97463.16;;;13.94;67.58
27144;BME280;14672;50.250;8.312;2023-03-31T05:02:34;97471.75;;;13.88;67.37
27144;BME280;14672;50.250;8.312;2023-03-31T05:04:59;97480.56;;;13.85;67.84
27144;BME280;14672;50.250;8.312;2023-03-31T05:07:25;97476.66;;;13.88;67.64
27144;BME280;14672;50.250;8.312;2023-03-31T05:09:51;97480.31;;;13.88;67.69
27144;BME280;14672;50.250;8.312;2023-03-31T05:12:17;97465.50;;;13.84;68.15
27144;BME280;14672;50.250;8.312;2023-03-31T05:14:43;97452.53;;;13.94;67.67
27144;BME280;14672;50.250;8.312;2023-03-31T05:17:08;97462.13;;;13.80;67.84
27144;BME280;14672;50.250;8.312;2023-03-31T05:19:34;97458.22;;;13.72;68.36
27144;BME280;14672;50.250;8.312;2023-03-31T05:22:02;97468.06;;;13.82;67.93
27144;BME280;14672;50.250;8.312;2023-03-31T05:24:28;97459.78;;;13.84;68.06
27144;BME280;14672;50.250;8.312;2023-03-31T05:26:55;97450.16;;;13.82;68.48
27144;BME280;14672;50.250;8.312;2023-03-31T05:29:22;97455.88;;;13.82;68.11
27144;BME280;14672;50.250;8.312;2023-03-31T05:31:49;97456.16;;;13.84;68.22
27144;BME280;14672;50.250;8.312;2023-03-31T05:34:15;97447.84;;;13.80;68.07
27144;BME280;14672;50.250;8.312;2023-03-31T05:36:41;97450.16;;;13.82;68.17
27144;BME280;14672;50.250;8.312;2023-03-31T05:39:08;97444.47;;;13.82;68.47
27144;BME280;14672;50.250;8.312;2023-03-31T05:41:35;97440.56;;;13.79;68.95
27144;BME280;14672;50.250;8.312;2023-03-31T05:44:01;97445.25;;;13.77;68.51
27144;BME280;14672;50.250;8.312;2023-03-31T05:46:27;97433.53;;;13.63;69.44
27144;BME280;14672;50.250;8.312;2023-03-31T05:48:53;97430.97;;;13.77;69.01
27144;BME280;14672;50.250;8.312;2023-03-31T05:51:19;97426.81;;;13.78;68.85
27144;BME280;14672;50.250;8.312;2023-03-31T05:53:45;97419.81;;;13.73;69.25
27144;BME280;14672;50.250;8.312;2023-03-31T05:56:10;97405.00;;;13.75;69.13
27144;BME280;14672;50.250;8.312;2023-03-31T05:58:37;97394.38;;;13.75;69.24
27144;BME280;14672;50.250;8.312;2023-03-31T06:01:21;97376.75;;;13.77;69.44
27144;BME280;14672;50.250;8.312;2023-03-31T06:03:49;97355.44;;;13.67;70.12
27144;BME280;14672;50.250;8.312;2023-03-31T06:06:15;97358.06;;;13.76;69.16
27144;BME280;14672;50.250;8.312;2023-03-31T06:08:45;97348.47;;;13.79;68.98
27144;BME280;14672;50.250;8.312;2023-03-31T06:11:15;97345.88;;;13.75;69.10
27144;BME280;14672;50.250;8.312;2023-03-31T06:13:44;97335.50;;;13.72;69.21
27144;BME280;14672;50.250;8.312;2023-03-31T06:16:13;97332.09;;;13.74;69.28
27144;BME280;14672;50.250;8.312;2023-03-31T06:18:40;97323.31;;;13.77;68.79
27144;BME280;14672;50.250;8.312;2023-03-31T06:21:11;97317.31;;;13.70;68.67
27144;BME280;14672;50.250;8.312;2023-03-31T06:23:37;97317.84;;;13.74;68.97
27144;BME280;14672;50.250;8.312;2023-03-31T06:26:07;97319.13;;;13.78;68.94
27144;BME280;14672;50.250;8.312;2023-03-31T06:28:34;97310.31;;;13.76;68.99
27144;BME280;14672;50.250;8.312;2023-03-31T06:31:04;97311.88;;;13.77;69.17
27144;BME280;14672;50.250;8.312;2023-03-31T06:33:31;97299.94;;;13.84;68.73
27144;BME280;14672;50.250;8.312;2023-03-31T06:35:58;97297.09;;;13.84;68.98
27144;BME280;14672;50.250;8.312;2023-03-31T06:38:28;97294.50;;;13.81;68.91
27144;BME280;14672;50.250;8.312;2023-03-31T06:40:54;97302.03;;;13.84;69.30
27144;BME280;14672;50.250;8.312;2023-03-31T06:43:20;97292.69;;;13.72;69.40
27144;BME280;14672;50.250;8.312;2023-03-31T06:45:46;97291.38;;;13.73;69.41
27144;BME280;14672;50.250;8.312;2023-03-31T06:48:13;97288.25;;;13.82;69.22
27144;BME280;14672;50.250;8.312;2023-03-31T06:50:40;97296.03;;;13.82;69.02
27144;BME280;14672;50.250;8.312;2023-03-31T06:53:08;97289.81;;;13.83;69.63
27144;BME280;14672;50.250;8.312;2023-03-31T06:55:35;97292.16;;;13.85;69.32
27144;BME280;14672;50.250;8.312;2023-03-31T06:58:02;97306.94;;;13.83;70.27
27144;BME280;14672;50.250;8.312;2023-03-31T07:00:29;97298.88;;;13.82;69.76
27144;BME280;14672;50.250;8.312;2023-03-31T07:02:55;97302.81;;;13.84;69.71
27144;BME280;14672;50.250;8.312;2023-03-31T07:05:21;97320.44;;;13.83;70.20
27144;BME280;14672;50.250;8.312;2023-03-31T07:07:58;97306.44;;;13.79;69.65
27144;BME280;14672;50.250;8.312;2023-03-31T07:10:29;97311.88;;;13.77;69.96
27144;BME280;14672;50.250;8.312;2023-03-31T07:12:55;97296.03;;;13.82;69.19
27144;BME280;14672;50.250;8.312;2023-03-31T07:15:23;97290.88;;;13.80;69.46
27144;BME280;14672;50.250;8.312;2023-03-31T07:17:52;97281.25;;;13.83;69.22
27144;BME280;14672;50.250;8.312;2023-03-31T07:20:28;97270.88;;;13.86;70.09
27144;BME280;14672;50.250;8.312;2023-03-31T07:22:55;97264.66;;;13.87;70.03
27144;BME280;14672;50.250;8.312;2023-03-31T07:25:21;97257.38;;;13.86;70.40
27144;BME280;14672;50.250;8.312;2023-03-31T07:27:47;97237.94;;;13.85;70.82
27144;BME280;14672;50.250;8.312;2023-03-31T07:30:17;97229.09;;;13.88;70.35
27144;BME280;14672;50.250;8.312;2023-03-31T07:32:50;97231.16;;;13.82;70.63
27144;BME280;14672;50.250;8.312;2023-03-31T07:35:18;97217.69;;;13.88;70.67
27144;BME280;14672;50.250;8.312;2023-03-31T07:37:46;97217.16;;;13.90;70.70
27144;BME280;14672;50.250;8.312;2023-03-31T07:40:21;97205.22;;;13.97;70.46
27144;BME280;14672;50.250;8.312;2023-03-31T07:42:48;97206.25;;;13.99;69.58
27144;BME280;14672;50.250;8.312;2023-03-31T07:45:19;97222.59;;;13.99;68.96
27144;BME280;14672;50.250;8.312;2023-03-31T07:47:46;97214.78;;;14.10;69.13
27144;BME280;14672;50.250;8.312;2023-03-31T07:50:15;97216.88;;;13.99;69.87
27144;BME280;14672;50.250;8.312;2023-03-31T07:52:41;97215.63;;;13.89;69.88
27144;BME280;14672;50.250;8.312;2023-03-31T07:55:09;97210.66;;;14.00;69.59
27144;BME280;14672;50.250;8.312;2023-03-31T07:57:36;97209.34;;;14.13;69.03
27144;BME280;14672;50.250;8.312;2023-03-31T08:00:04;97205.47;;;14.04;68.66
27144;BME280;14672;50.250;8.312;2023-03-31T08:02:33;97210.88;;;14.19;68.51
27144;BME280;14672;50.250;8.312;2023-03-31T08:05:00;97211.13;;;14.21;67.80
27144;BME280;14672;50.250;8.312;2023-03-31T08:07:26;97217.84;;;14.24;67.98
27144;BME280;14672;50.250;8.312;2023-03-31T08:09:56;97213.16;;;14.32;67.68
27144;BME280;14672;50.250;8.312;2023-03-31T08:12:22;97210.28;;;14.43;67.97
27144;BME280;14672;50.250;8.312;2023-03-31T08:14:48;97227.38;;;14.54;67.97
27144;BME280;14672;50.250;8.312;2023-03-31T08:17:14;97218.06;;;14.42;68.18
27144;BME280;14672;50.250;8.312;2023-03-31T08:19:40;97227.66;;;14.50;67.90
27144;BME280;14672;50.250;8.312;2023-03-31T08:22:06;97225.56;;;14.56;67.63
27144;BME280;14672;50.250;8.312;2023-03-31T08:24:31;97216.44;;;14.64;67.92
27144;BME280;14672;50.250;8.312;2023-03-31T08:26:58;97211.94;;;14.79;67.71
27144;BME280;14672;50.250;8.312;2023-03-31T08:29:24;97207.53;;;14.78;67.70
27144;BME280;14672;50.250;8.312;2023-03-31T08:31:50;97208.06;;;14.77;68.38
27144;BME280;14672;50.250;8.312;2023-03-31T08:34:16;97206.44;;;14.87;67.87
27144;BME280;14672;50.250;8.312;2023-03-31T08:36:42;97214.75;;;14.90;67.22
27144;BME280;14672;50.250;8.312;2023-03-31T08:39:08;97208.78;;;14.88;65.88
27144;BME280;14672;50.250;8.312;2023-03-31T08:41:53;97198.84;;;15.00;64.54
27144;BME280;14672;50.250;8.312;2023-03-31T08:45:16;97192.34;;;15.00;64.46
27144;BME280;14672;50.250;8.312;2023-03-31T08:47:20;97201.81;;;14.78;64.53
27144;BME280;14672;50.250;8.312;2023-03-31T08:49:52;97200.03;;;14.70;64.89
27144;BME280;14672;50.250;8.312;2023-03-31T08:52:30;97198.88;;;14.89;65.09
27144;BME280;14672;50.250;8.312;2023-03-31T08:55:04;97192.34;;;15.00;65.73
27144;BME280;14672;50.250;8.312;2023-03-31T08:57:45;97197.59;;;14.90;65.72
27144;BME280;14672;50.250;8.312;2023-03-31T09:00:18;97186.63;;;15.00;65.33
27144;BME280;14672;50.250;8.312;2023-03-31T09:03:25;97187.44;;;14.89;65.27
27144;BME280;14672;50.250;8.312;2023-03-31T09:06:32;97177.84;;;14.92;65.06
27144;BME280;14672;50.250;8.312;2023-03-31T09:09:02;97175.97;;;15.00;64.51
27144;BME280;14672;50.250;8.312;2023-03-31T09:11:53;97162.97;;;14.99;64.92
27144;BME280;14672;50.250;8.312;2023-03-31T09:17:43;97155.09;;;15.05;65.43
27144;BME280;14672;50.250;8.312;2023-03-31T09:20:11;97153.19;;;15.19;65.32
27144;BME280;14672;50.250;8.312;2023-03-31T09:22:54;97145.00;;;15.34;65.07
27144;BME280;14672;50.250;8.312;2023-03-31T09:25:36;97140.50;;;15.44;65.15
27144;BME280;14672;50.250;8.312;2023-03-31T09:28:29;97143.47;;;15.63;64.75
27144;BME280;14672;50.250;8.312;2023-03-31T09:30:57;97139.72;;;15.74;63.75
27144;BME280;14672;50.250;8.312;2023-03-31T09:33:27;97134.00;;;15.74;63.65
27144;BME280;14672;50.250;8.312;2023-03-31T09:36:00;97148.38;;;15.68;63.95
27144;BME280;14672;50.250;8.312;2023-03-31T09:38:27;97144.09;;;15.80;63.06
27144;BME280;14672;50.250;8.312;2023-03-31T09:40:58;97141.63;;;15.90;62.98
27144;BME280;14672;50.250;8.312;2023-03-31T09:43:29;97134.59;;;15.91;63.50
27144;BME280;14672;50.250;8.312;2023-03-31T09:45:56;97127.84;;;15.88;63.51
27144;BME280;14672;50.250;8.312;2023-03-31T09:48:27;97128.94;;;15.85;62.99
27144;BME280;14672;50.250;8.312;2023-03-31T09:51:03;97118.72;;;15.90;63.63
27144;BME280;14672;50.250;8.312;2023-03-31T09:59:29;97100.28;;;15.85;62.90
27144;BME280;14672;50.250;8.312;2023-03-31T10:01:59;97103.63;;;15.65;62.74
27144;BME280;14672;50.250;8.312;2023-03-31T10:04:31;97107.81;;;15.64;63.04
27144;BME280;14672;50.250;8.312;2023-03-31T10:07:00;97106.94;;;15.75;62.66
27144;BME280;14672;50.250;8.312;2023-03-31T10:09:33;97096.06;;;15.68;63.57
27144;BME280;14672;50.250;8.312;2023-03-31T10:12:14;97110.13;;;15.66;64.17
27144;BME280;14672;50.250;8.312;2023-03-31T10:14:48;97125.00;;;15.64;64.35
27144;BME280;14672;50.250;8.312;2023-03-31T10:17:23;97183.00;;;14.94;63.53
27144;BME280;14672;50.250;8.312;2023-03-31T10:19:55;97176.00;;;14.89;61.88
27144;BME280;14672;50.250;8.312;2023-03-31T10:24:50;97157.94;;;14.70;60.78
27144;BME280;14672;50.250;8.312;2023-03-31T10:27:28;97141.94;;;14.56;61.14
27144;BME280;14672;50.250;8.312;2023-03-31T10:30:03;97125.72;;;14.70;62.23
27144;BME280;14672;50.250;8.312;2023-03-31T10:32:40;97122.38;;;14.66;62.71
27144;BME280;14672;50.250;8.312;2023-03-31T10:35:32;97111.63;;;14.77;62.66
27144;BME280;14672;50.250;8.312;2023-03-31T10:38:06;97114.72;;;14.85;65.32
27144;BME280;14672;50.250;8.312;2023-03-31T10:40:34;97101.19;;;14.85;63.16
27144;BME280;14672;50.250;8.312;2023-03-31T10:43:19;97089.94;;;14.93;63.51
27144;BME280;14672;50.250;8.312;2023-03-31T10:45:50;97094.34;;;14.99;64.31
27144;BME280;14672;50.250;8.312;2023-03-31T10:48:23;97095.50;;;15.15;64.08
27144;BME280;14672;50.250;8.312;2023-03-31T10:50:49;97090.41;;;15.32;63.87
27144;BME280;14672;50.250;8.312;2023-03-31T10:53:17;97092.00;;;15.58;63.02
27144;BME280;14672;50.250;8.312;2023-03-31T10:58:52;97083.50;;;16.19;62.61
27144;BME280;14672;50.250;8.312;2023-03-31T11:08:18;97091.63;;;16.53;58.58
27144;BME280;14672;50.250;8.312;2023-03-31T11:16:50;97094.81;;;16.49;57.83
27144;BME280;14672;50.250;8.312;2023-03-31T11:22:20;97070.03;;;16.70;56.11
27144;BME280;14672;50.250;8.312;2023-03-31T11:37:02;97052.97;;;16.22;57.75
27144;BME280;14672;50.250;8.312;2023-03-31T11:42:52;97072.19;;;16.45;58.42
27144;BME280;14672;50.250;8.312;2023-03-31T11:45:28;97078.38;;;16.31;58.27
27144;BME280;14672;50.250;8.312;2023-03-31T11:48:02;97049.03;;;16.62;58.11
27144;BME280;14672;50.250;8.312;2023-03-31T11:50:34;97048.19;;;16.67;57.99
27144;BME280;14672;50.250;8.312;2023-03-31T11:53:18;97027.63;;;16.44;57.98
27144;BME280;14672;50.250;8.312;2023-03-31T11:55:49;97023.16;;;16.68;57.77
27144;BME280;14672;50.250;8.312;2023-03-31T11:58:50;97032.81;;;16.83;58.07
27144;BME280;14672;50.250;8.312;2023-03-31T12:01:28;97048.03;;;16.78;57.31
27144;BME280;14672;50.250;8.312;2023-03-31T12:04:19;97063.44;;;16.75;56.97
27144;BME280;14672;50.250;8.312;2023-03-31T12:06:49;97062.91;;;16.58;56.06
27144;BME280;14672;50.250;8.312;2023-03-31T12:12:23;97045.22;;;16.54;55.47
27144;BME280;14672;50.250;8.312;2023-03-31T12:15:11;97050.16;;;16.59;53.97
27144;BME280;14672;50.250;8.312;2023-03-31T12:17:42;97052.91;;;16.65;54.36
27144;BME280;14672;50.250;8.312;2023-03-31T12:20:35;97030.81;;;16.78;53.49
27144;BME280;14672;50.250;8.312;2023-03-31T12:23:07;97012.44;;;17.00;53.48
27144;BME280;14672;50.250;8.312;2023-03-31T12:26:11;97010.75;;;17.36;55.06
27144;BME280;14672;50.250;8.312;2023-03-31T12:28:41;97011.34;;;17.61;54.66
27144;BME280;14672;50.250;8.312;2023-03-31T12:31:18;97007.03;;;17.81;55.51
27144;BME280;14672;50.250;8.312;2023-03-31T12:34:12;96990.81;;;17.70;53.96
27144;BME280;14672;50.250;8.312;2023-03-31T12:37:05;96986.16;;;17.94;53.69
27144;BME280;14672;50.250;8.312;2023-03-31T12:45:41;96974.72;;;18.82;52.15
27144;BME280;14672;50.250;8.312;2023-03-31T12:49:30;96963.66;;;18.86;50.77
27144;BME280;14672;50.250;8.312;2023-03-31T12:52:04;96968.56;;;18.44;50.28
27144;BME280;14672;50.250;8.312;2023-03-31T12:59:40;96975.09;;;18.11;51.21
27144;BME280;14672;50.250;8.312;2023-03-31T13:04:37;96979.25;;;18.57;50.75
27144;BME280;14672;50.250;8.312;2023-03-31T13:07:11;96990.59;;;18.28;50.26
27144;BME280;14672;50.250;8.312;2023-03-31T13:09:47;96975.28;;;18.13;49.84
27144;BME280;14672;50.250;8.312;2023-03-31T13:12:24;96979.06;;;18.55;50.66
27144;BME280;14672;50.250;8.312;2023-03-31T13:14:55;96969.16;;;18.29;50.36
27144;BME280;14672;50.250;8.312;2023-03-31T13:17:36;96968.44;;;18.50;51.08
27144;BME280;14672;50.250;8.312;2023-03-31T13:20:33;96963.84;;;18.34;49.92
27144;BME280;14672;50.250;8.312;2023-03-31T13:23:18;96965.25;;;18.53;50.19
27144;BME280;14672;50.250;8.312;2023-03-31T13:25:54;96949.69;;;18.69;49.05
27144;BME280;14672;50.250;8.312;2023-03-31T13:30:55;96950.63;;;19.13;49.36
27144;BME280;14672;50.250;8.312;2023-03-31T13:33:51;96938.84;;;19.04;49.79
27144;BME280;14672;50.250;8.312;2023-03-31T13:47:42;96958.00;;;18.26;51.48
27144;BME280;14672;50.250;8.312;2023-03-31T13:53:37;96980.84;;;17.84;54.34
27144;BME280;14672;50.250;8.312;2023-03-31T13:59:48;96961.19;;;17.89;55.03
27144;BME280;14672;50.250;8.312;2023-03-31T14:05:32;96952.00;;;18.37;55.07
27144;BME280;14672;50.250;8.312;2023-03-31T14:08:07;96936.06;;;18.36;53.56
27144;BME280;14672;50.250;8.312;2023-03-31T14:10:39;96942.81;;;18.39;52.39
27144;BME280;14672;50.250;8.312;2023-03-31T14:13:16;96919.88;;;18.25;52.97
27144;BME280;14672;50.250;8.312;2023-03-31T14:15:55;96915.31;;;18.30;53.38
27144;BME280;14672;50.250;8.312;2023-03-31T14:18:32;96926.75;;;18.22;50.63
27144;BME280;14672;50.250;8.312;2023-03-31T14:32:38;96924.44;;;17.61;52.86
27144;BME280;14672;50.250;8.312;2023-03-31T14:38:22;96912.16;;;17.73;52.98
27144;BME280;14672;50.250;8.312;2023-03-31T14:40:52;96909.63;;;17.83;51.66
27144;BME280;14672;50.250;8.312;2023-03-31T14:43:25;96901.28;;;17.93;51.80
27144;BME280;14672;50.250;8.312;2023-03-31T14:46:04;96897.31;;;17.96;52.00
27144;BME280;14672;50.250;8.312;2023-03-31T14:48:45;96909.03;;;17.98;52.62
27144;BME280;14672;50.250;8.312;2023-03-31T14:51:15;96905.75;;;17.80;50.54
27144;BME280;14672;50.250;8.312;2023-03-31T14:53:41;96910.97;;;17.69;50.76
27144;BME280;14672;50.250;8.312;2023-03-31T14:56:15;96909.03;;;17.84;50.99
27144;BME280;14672;50.250;8.312;2023-03-31T14:58:50;96930.53;;;17.57;49.21
27144;BME280;14672;50.250;8.312;2023-03-31T15:01:24;96938.22;;;17.36;49.40
27144;BME280;14672;50.250;8.312;2023-03-31T15:03:53;96944.88;;;17.31;49.33
27144;BME280;14672;50.250;8.312;2023-03-31T15:06:24;96943.75;;;17.08;49.25
27144;BME280;14672;50.250;8.312;2023-03-31T15:08:56;96969.66;;;17.02;48.93
27144;BME280;14672;50.250;8.312;2023-03-31T15:11:22;97031.09;;;16.94;50.30
27144;BME280;14672;50.250;8.312;2023-03-31T15:13:51;97012.28;;;16.79;50.42
27144;BME280;14672;50.250;8.312;2023-03-31T15:16:42;97007.16;;;16.59;50.70
27144;BME280;14672;50.250;8.312;2023-03-31T15:19:21;97006.66;;;16.55;50.37
27144;BME280;14672;50.250;8.312;2023-03-31T15:22:01;97006.97;;;16.33;50.30
27144;BME280;14672;50.250;8.312;2023-03-31T15:24:28;96983.59;;;16.29;50.79
27144;BME280;14672;50.250;8.312;2023-03-31T15:29:47;96952.06;;;16.29;51.43
27144;BME280;14672;50.250;8.312;2023-03-31T15:34:49;96936.91;;;15.96;50.69
27144;BME280;14672;50.250;8.312;2023-03-31T15:37:16;96929.44;;;16.12;51.30
27144;BME280;14672;50.250;8.312;2023-03-31T15:39:47;96943.88;;;16.01;51.36
27144;BME280;14672;50.250;8.312;2023-03-31T15:42:13;96948.09;;;16.00;52.13
27144;BME280;14672;50.250;8.312;2023-03-31T15:44:53;96955.44;;;15.95;52.23
27144;BME280;14672;50.250;8.312;2023-03-31T15:47:26;96955.34;;;16.01;52.63
27144;BME280;14672;50.250;8.312;2023-03-31T15:52:35;96944.44;;;16.00;52.92
27144;BME280;14672;50.250;8.312;2023-03-31T15:57:56;96945.50;;;15.96;53.02
27144;BME280;14672;50.250;8.312;2023-03-31T16:00:41;96940.56;;;15.97;53.62